Latest Weather Observations for Keith West

IDS60801

Issued at 2:35 pm CDT Monday 24 November 2014 (issued every 30 minutes, with the page automatically refreshed every 10 minutes)

About weather observations | Map of weather stations | Latest weather observations for SA | Other Formats
Station Details ID: 025557 Name: MUNKORA Lat: -36.11 Lon: 140.33 Height: 27.0 m
Data from the previous 72 hours. | See also: Recent months for locations in South Australia
Date/Time
CDT
Temp
°C
App
Temp
°C
Dew
Point
Rel
Hum
%
Delta-T
°C
Wind Press
QNH
hPa
Press
MSL
hPa
Rain
since 9 am
mm
Dir
 
Spd
km/h
Gust
km/h
Spd
kts
Gust
kts
24/02:30pm 18.6 12.1 9.1 54 5.0 SW 33 48 18 26 1012.4 1012.3 2.0
24/02:00pm 19.6 12.9 8.3 48 5.9 SW 33 46 18 25 1012.5 1012.4 2.0
24/01:30pm 17.8 12.0 10.9 64 3.7 WSW 32 46 17 25 1012.3 1012.2 2.0
24/01:27pm 17.6 11.8 11.6 68 3.3 WSW 33 52 18 28 1012.4 1012.3 2.0
24/01:00pm 19.1 11.8 12.8 67 3.5 SW 43 56 23 30 1011.8 1011.7 1.8
24/12:43pm 22.1 16.6 12.4 54 5.5 WSW 33 54 18 29 1011.3 1011.2 1.8
24/12:30pm 21.5 16.1 12.1 55 5.3 WSW 32 44 17 24 1011.3 1011.2 1.8
24/12:00pm 21.6 17.0 11.0 51 5.9 SW 26 37 14 20 1010.8 1010.7 1.6
24/11:30am 21.8 17.5 10.6 49 6.1 SW 24 35 13 19 1010.8 1010.7 1.2
24/11:00am 21.8 18.2 10.6 49 6.1 SW 20 30 11 16 1010.9 1010.8 0.2
24/10:30am 20.8 17.4 11.4 55 5.2 SW 20 30 11 16 1011.0 1010.9 0.0
24/10:00am 19.6 16.3 11.6 60 4.4 SSW 20 30 11 16 1010.8 1010.7 0.0
24/09:30am 18.7 15.6 11.5 63 4.0 SSW 19 26 10 14 1010.8 1010.7 0.0
24/09:00am 17.9 14.9 12.4 70 3.1 SSW 20 28 11 15 1010.1 1010.0 0.0
24/08:30am 15.7 12.9 12.5 81 1.8 SSW 19 26 10 14 1010.1 1010.0 0.0
24/08:00am 14.7 11.9 12.6 87 1.1 SW 19 28 10 15 1009.2 1009.1 0.0
24/07:30am 14.4 12.7 12.6 89 1.0 SW 13 19 7 10 1009.0 1008.9 0.0
24/07:00am 14.3 12.7 12.9 91 0.8 S 13 19 7 10 1008.1 1008.0 0.0
24/06:30am 14.3 13.0 12.5 89 1.0 SE 11 26 6 14 1007.6 1007.5 0.0
24/06:00am 14.7 13.6 11.8 83 1.6 SE 9 17 5 9 1007.3 1007.2 0.0
24/05:30am 14.9 11.7 11.3 79 1.9 SSW 19 32 10 17 1008.4 1008.3 0.0
24/05:00am 15.5 14.4 10.5 72 2.6 SSE 7 15 4 8 1007.6 1007.5 0.0
24/04:30am 15.3 11.8 10.3 72 2.6 SSW 19 32 10 17 1008.0 1007.9 0.0
24/04:00am 14.9 12.1 10.1 73 2.5 SSW 15 20 8 11 1007.0 1006.9 0.0
24/03:30am 14.4 13.3 10.8 79 1.9 S 7 9 4 5 1006.6 1006.5 0.0
24/03:00am 15.8 14.7 10.6 71 2.8 E 7 11 4 6 1006.6 1006.5 0.0
24/02:30am 15.4 14.3 10.6 73 2.5 E 7 9 4 5 1007.2 1007.1 0.0
24/02:00am 15.3 13.8 10.7 74 2.4 ESE 9 11 5 6 1007.6 1007.5 0.0
24/01:30am 14.8 14.0 9.6 71 2.7 SE 4 6 2 3 1008.6 1008.5 0.0
24/01:00am 14.4 12.5 9.2 71 2.7 SE 9 11 5 6 1008.9 1008.8 0.0
24/12:30am 13.9 11.7 7.9 67 3.0 SE 9 11 5 6 1009.2 1009.1 0.0
24/12:00am 16.2 13.7 8.2 59 4.1 S 11 15 6 8 1010.0 1009.9 0.0
 
Date/Time
CDT
Temp
°C
App
Temp
°C
Dew
Point
Rel
Hum
%
Delta-T
°C
Wind Press
QNH
hPa
Press
MSL
hPa
Rain
since 9 am
mm
Dir
 
Spd
km/h
Gust
km/h
Spd
kts
Gust
kts
23/11:30pm 15.9 13.9 6.9 55 4.4 S 7 11 4 6 1010.4 1010.3 0.0
23/11:00pm 15.6 13.4 6.3 54 4.5 SSE 7 7 4 4 1010.4 1010.3 0.0
23/10:30pm 16.9 14.7 6.1 49 5.3 SSE 7 11 4 6 1010.6 1010.5 0.0
23/10:00pm 17.9 15.4 6.4 47 5.7 S 9 13 5 7 1010.8 1010.7 0.0
23/09:30pm 18.8 15.9 6.3 44 6.2 S 11 15 6 8 1010.6 1010.5 0.0
23/09:00pm 19.8 17.0 5.1 38 7.2 S 9 15 5 8 1010.5 1010.4 0.0
23/08:30pm 19.6 16.5 5.6 40 6.9 S 11 13 6 7 1010.5 1010.4 0.0
23/08:00pm 21.2 18.9 5.6 36 7.8 SSE 7 9 4 5 1010.3 1010.2 0.0
23/07:30pm 23.4 21.0 5.3 31 9.1 S 7 11 4 6 1010.7 1010.6 0.0
23/07:00pm 24.9 21.7 5.2 28 10.0 SW 11 13 6 7 1010.9 1010.8 0.0
23/06:30pm 25.2 22.3 4.9 27 10.3 SSW 9 15 5 8 1010.7 1010.6 0.0
23/06:00pm 25.3 22.0 4.4 26 10.5 SW 11 15 6 8 1010.6 1010.5 0.0
23/05:30pm 26.1 22.1 5.1 26 10.7 WSW 15 22 8 12 1010.9 1010.8 0.0
23/05:00pm 26.3 21.6 5.3 26 10.7 WSW 19 26 10 14 1011.2 1011.1 0.0
23/04:30pm 26.8 23.4 5.7 26 10.9 SW 13 15 7 8 1010.8 1010.7 0.0
23/04:00pm 27.0 23.7 6.4 27 10.8 SW 13 19 7 10 1010.3 1010.2 0.0
23/03:30pm 27.6 23.8 7.5 28 10.8 SW 17 32 9 17 1010.9 1010.8 0.0
23/03:00pm 27.6 23.2 7.5 28 10.8 WSW 20 28 11 15 1011.6 1011.5 0.0
23/02:30pm 26.6 24.0 7.6 30 10.1 WNW 11 20 6 11 1011.9 1011.8 0.0
23/02:00pm 26.0 23.8 9.4 35 9.1 NW 11 20 6 11 1012.3 1012.2 0.0
23/01:30pm 24.6 22.4 9.3 38 8.3 NW 11 20 6 11 1012.4 1012.3 0.0
23/01:00pm 24.5 22.1 10.0 40 8.0 WNW 13 20 7 11 1012.3 1012.2 0.0
23/12:30pm 23.3 21.4 10.4 44 7.1 WNW 11 22 6 12 1012.5 1012.4 0.0
23/12:00pm 21.6 20.3 10.1 48 6.2 NNW 7 15 4 8 1012.3 1012.2 0.0
23/11:30am 20.7 19.8 10.5 52 5.6 NNE 6 9 3 5 1012.6 1012.5 0.0
23/11:00am 20.2 19.6 11.7 58 4.7 NE 6 9 3 5 1012.8 1012.7 0.0
23/10:30am 18.4 18.3 12.2 67 3.4 NE 4 9 2 5 1012.9 1012.8 0.0
23/10:00am 17.3 17.1 13.6 79 2.1 ENE 7 15 4 8 1012.9 1012.8 0.0
23/09:30am 15.1 14.8 13.3 89 1.0 E 7 11 4 6 1013.1 1013.0 0.0
23/09:00am 14.2 13.9 13.4 95 0.4 E 7 15 4 8 1013.2 1013.1 4.6
23/08:30am 13.3 12.8 12.5 95 0.4 E 7 9 4 5 1013.2 1013.1 4.6
23/08:00am 12.6 11.8 11.8 95 0.4 SE 7 9 4 5 1013.2 1013.1 4.4
23/07:30am 12.4 12.9 11.6 95 0.4 CALM 0 0 0 0 1013.2 1013.1 4.4
23/07:00am 11.4 11.6 10.6 95 0.4 CALM 0 0 0 0 1012.9 1012.8 4.4
23/06:30am 10.4 10.0 9.6 95 0.4 NNE 2 2 1 1 1012.5 1012.4 4.4
23/06:00am 10.6 10.6 9.8 95 0.4 CALM 0 2 0 1 1012.3 1012.2 4.4
23/05:30am 10.9 9.8 10.1 95 0.4 NNE 6 7 3 4 1012.1 1012.0 4.4
23/05:00am 10.7 10.0 9.9 95 0.4 N 4 4 2 2 1011.8 1011.7 4.4
23/04:30am 10.6 9.8 9.8 95 0.4 WSW 4 4 2 2 1011.6 1011.5 4.4
23/04:00am 10.0 9.5 9.2 95 0.4 SSW 2 4 1 2 1011.5 1011.4 4.4
23/03:30am 9.5 9.1 8.4 93 0.5 CALM 0 0 0 0 1011.3 1011.2 4.4
23/03:00am 10.8 10.8 9.7 93 0.6 CALM 0 0 0 0 1011.3 1011.2 4.4
23/02:30am 11.3 10.3 10.2 93 0.6 SSW 6 7 3 4 1011.2 1011.1 4.4
23/02:00am 11.9 11.4 10.8 93 0.6 SW 4 6 2 3 1011.4 1011.3 4.4
23/01:30am 13.1 12.5 12.2 94 0.5 WSW 7 11 4 6 1011.6 1011.5 4.4
23/01:00am 12.0 10.9 10.6 91 0.7 WSW 7 7 4 4 1011.8 1011.7 4.4
23/12:30am 13.1 11.5 11.7 91 0.7 SW 11 13 6 7 1011.8 1011.7 4.4
23/12:00am 13.5 12.4 12.1 91 0.8 WSW 9 11 5 6 1011.8 1011.7 4.4
 
Date/Time
CDT
Temp
°C
App
Temp
°C
Dew
Point
Rel
Hum
%
Delta-T
°C
Wind Press
QNH
hPa
Press
MSL
hPa
Rain
since 9 am
mm
Dir
 
Spd
km/h
Gust
km/h
Spd
kts
Gust
kts
22/11:30pm 12.9 11.9 11.1 89 0.9 WSW 7 9 4 5 1011.9 1011.8 4.4
22/11:00pm 13.9 13.2 11.9 88 1.1 WSW 7 9 4 5 1011.7 1011.6 4.4
22/10:30pm 14.8 14.2 12.3 85 1.4 WSW 7 9 4 5 1011.5 1011.4 4.4
22/10:00pm 15.4 14.5 12.7 84 1.5 WSW 9 13 5 7 1011.2 1011.1 4.4
22/09:30pm 15.8 14.9 12.5 81 1.8 WSW 9 9 5 5 1010.9 1010.8 4.4
22/09:00pm 17.0 16.7 12.7 76 2.4 WSW 6 9 3 5 1010.4 1010.3 4.4
22/08:30pm 18.2 15.5 12.9 71 3.0 SW 19 26 10 14 1009.7 1009.6 4.4
22/08:00pm 19.5 16.8 13.4 68 3.5 WSW 20 26 11 14 1009.0 1008.9 4.4
22/07:30pm 21.1 18.5 13.8 63 4.2 WSW 20 26 11 14 1008.6 1008.5 4.4
22/07:00pm 22.3 20.5 15.4 65 4.1 WSW 19 26 10 14 1007.6 1007.5 4.4
22/06:30pm 21.6 21.9 18.0 80 2.2 NW 13 20 7 11 1007.9 1007.8 2.4
22/06:00pm 21.7 22.9 18.3 81 2.1 NNW 9 17 5 9 1007.1 1007.0 1.0
22/05:30pm 22.9 21.0 15.7 64 4.3 N 20 22 11 12 1006.0 1005.9 0.2
22/05:00pm 25.3 21.6 13.8 49 6.8 NNW 26 41 14 22 1006.8 1006.7 0.0
22/04:30pm 27.0 22.7 14.4 46 7.6 NW 30 39 16 21 1006.1 1006.0 0.0
22/04:00pm 26.7 22.5 13.4 43 7.8 NW 28 41 15 22 1005.8 1005.7 0.0
22/03:30pm 26.4 20.8 13.2 44 7.8 NW 35 46 19 25 1006.4 1006.3 0.0
22/03:00pm 25.3 19.8 11.8 43 7.7 N 32 50 17 27 1006.4 1006.3 0.0
22/02:30pm 28.4 22.9 10.6 33 10.1 N 30 43 16 23 1006.9 1006.8 0.0
22/02:00pm 28.8 22.0 10.5 32 10.4 N 37 48 20 26 1006.1 1006.0 0.0
22/01:30pm 29.6 23.5 11.6 33 10.5 NNW 35 46 19 25 1006.1 1006.0 0.0
22/01:00pm 29.1 22.6 11.6 33 10.1 N 37 48 20 26 1006.5 1006.4 0.0
22/12:30pm 29.3 22.3 11.4 33 10.3 N 39 54 21 29 1006.7 1006.6 0.0
22/12:00pm 29.4 21.4 10.5 31 10.8 N 43 59 23 32 1007.0 1006.9 0.0
22/11:32am 28.3 22.1 11.4 35 9.7 N 35 54 19 29 1007.3 1007.2 0.0
22/11:30am 28.3 22.0 10.9 34 9.9 N 35 48 19 26 1007.2 1007.1 0.0
22/11:00am 26.0 18.9 9.4 35 9.1 N 37 50 20 27 1007.4 1007.3 0.0
22/10:48am 26.3 19.5 9.2 34 9.4 N 35 54 19 29 1007.5 1007.4 0.0
22/10:30am 25.1 18.9 9.4 37 8.6 N 32 43 17 23 1007.7 1007.6 0.0
22/10:00am 22.5 15.4 7.9 39 7.7 N 35 50 19 27 1008.0 1007.9 0.0
22/09:30am 20.9 15.9 7.9 43 6.8 N 24 39 13 21 1007.8 1007.7 0.0
22/09:00am 20.2 16.9 6.5 41 6.9 NE 13 19 7 10 1009.0 1008.9 0.0
22/08:30am 19.1 16.9 5.2 40 6.8 NE 6 9 3 5 1010.0 1009.9 0.0
22/08:00am 18.9 17.0 5.0 40 6.7 E 4 7 2 4 1009.3 1009.2 0.0
22/07:30am 17.8 15.5 5.7 45 5.9 ENE 7 9 4 5 1008.8 1008.7 0.0
22/07:00am 17.6 15.4 5.2 44 6.0 SE 6 7 3 4 1008.6 1008.5 0.0
22/06:30am 17.5 14.6 4.5 42 6.2 SSE 9 11 5 6 1007.8 1007.7 0.0
22/06:00am 17.3 14.0 4.6 43 6.0 SSE 11 17 6 9 1007.6 1007.5 0.0
22/05:30am 16.8 13.1 4.5 44 5.8 S 13 19 7 10 1007.8 1007.7 0.0
22/05:00am 18.5 13.8 3.2 36 7.1 NNE 17 22 9 12 1006.9 1006.8 0.0
22/04:30am 18.1 13.4 3.2 37 6.9 NNE 17 22 9 12 1006.5 1006.4 0.0
22/04:00am 17.4 13.2 4.0 41 6.3 NE 15 22 8 12 1006.4 1006.3 0.0
22/03:30am 17.0 12.0 3.7 41 6.2 NE 19 24 10 13 1006.4 1006.3 0.0
22/03:00am 16.6 11.5 4.0 43 5.9 ENE 20 24 11 13 1006.5 1006.4 0.0
22/02:30am 15.8 11.7 4.5 47 5.3 NE 15 19 8 10 1007.5 1007.4 0.0
22/02:00am 15.9 12.6 4.6 47 5.3 NE 11 17 6 9 1008.0 1007.9 0.0
22/01:30am 15.8 12.1 4.5 47 5.3 ENE 13 17 7 9 1008.4 1008.3 0.0
22/01:00am 15.8 12.6 5.1 49 5.1 NE 11 15 6 8 1008.9 1008.8 0.0
22/12:30am 15.3 12.7 6.1 54 4.4 ENE 9 11 5 6 1009.5 1009.4 0.0
22/12:00am 14.2 11.3 6.3 59 3.8 E 11 13 6 7 1010.2 1010.1 0.0
 
Date/Time
CDT
Temp
°C
App
Temp
°C
Dew
Point
Rel
Hum
%
Delta-T
°C
Wind Press
QNH
hPa
Press
MSL
hPa
Rain
since 9 am
mm
Dir
 
Spd
km/h
Gust
km/h
Spd
kts
Gust
kts
21/11:30pm 14.0 12.0 7.1 63 3.4 E 7 9 4 5 1010.7 1010.6 0.0
21/11:00pm 14.2 12.2 7.0 62 3.5 E 7 7 4 4 1011.2 1011.1 0.0
21/10:30pm 14.4 12.6 7.2 62 3.5 ESE 6 7 3 4 1011.4 1011.3 0.0
21/10:00pm 14.2 12.6 7.9 66 3.1 S 6 6 3 3 1011.6 1011.5 0.0
21/09:30pm 14.9 13.4 7.0 59 3.9 S 4 6 2 3 1011.7 1011.6 0.0
21/09:00pm 16.1 14.7 7.1 55 4.5 S 4 4 2 2 1011.6 1011.5 0.0
21/08:30pm 18.3 16.1 5.5 43 6.2 SSW 6 6 3 3 1011.4 1011.3 0.0
21/08:00pm 18.9 16.7 5.4 41 6.6 SSW 6 7 3 4 1011.3 1011.2 0.0
21/07:30pm 20.6 18.1 4.6 35 7.8 SW 7 11 4 6 1011.2 1011.1 0.0
21/07:00pm 22.1 19.2 4.7 32 8.6 SW 9 13 5 7 1010.8 1010.7 0.0
21/06:30pm 22.8 19.4 3.9 29 9.2 SW 11 15 6 8 1010.7 1010.6 0.0
21/06:00pm 22.8 18.8 4.8 31 8.9 SW 15 19 8 10 1010.6 1010.5 0.0
21/05:30pm 24.0 19.5 2.2 24 10.4 SW 15 24 8 13 1010.5 1010.4 0.0
21/05:00pm 23.9 18.4 0.3 21 10.8 WSW 19 35 10 19 1010.7 1010.6 0.0
21/04:30pm 24.6 19.1 2.1 23 10.8 WSW 20 30 11 16 1010.9 1010.8 0.0
21/04:00pm 24.9 20.2 3.0 24 10.7 WSW 17 26 9 14 1010.8 1010.7 0.0
21/03:30pm 23.8 19.9 5.2 30 9.4 NW 15 22 8 12 1010.9 1010.8 0.0
21/03:00pm 24.7 20.3 5.0 28 9.9 W 17 30 9 16 1011.3 1011.2 0.0

Other Formats:

Comma delimited format used in spreadsheet applications
http://www.bom.gov.au/fwo/IDS60801/IDS60801.95815.axf

JavaScript Object Notation format (JSON) in row-major order
http://www.bom.gov.au/fwo/IDS60801/IDS60801.95815.json